Skip to Main Content
SEARCH:
Location Air RH Dwp Precip Type Wind Speed Wind Gust Direction Pavement Temperature Date/Time
Hatem Bridge US 40 E/B 62 100 62 None 11 mph 14 mph SE 66 - 66 4/27/2017 8:51:00 AM
I-270 at I-370 59 97 58 None Calm Calm S 64 - 64 4/27/2017 8:50:00 AM
I-270 at MD-109 59 100 59 None Calm 6 mph E 63 - 66 4/27/2017 8:50:00 AM
I-495 at American Legion Bridge 61 100 61 None Calm 6 mph NE 68 - 69 4/27/2017 8:50:00 AM
I-68 at MD-219 61 86 57 None 9 mph 15 mph S 67 - 68 4/27/2017 8:50:00 AM
I-68 at Savage Mt 56 100 56 None 4 mph 7 mph E 63 - 63 4/27/2017 8:50:00 AM
I-68 at Sideling Hill 57 100 57 None 4 mph 9 mph S 62 - 62 4/27/2017 8:50:00 AM
I-68 at WV Line 61 87 57 None Calm Calm E 65 - 66 4/27/2017 8:50:00 AM
I-695 at I-83 63 88 60 None Calm 7 mph SE 68 - 70 4/27/2017 8:50:00 AM
I-70 at Fred-Wash Co. 57 100 57 None 6 mph 12 mph SE 62 - 62 4/27/2017 8:50:00 AM
I-70 at I-695 59 97 58 None 4 mph 10 mph E 62 - 70 4/27/2017 8:50:00 AM
I-70 at I-81 61 100 61 None Calm 5 mph E 68 - 68 4/27/2017 8:50:00 AM
I-70 at MD-27 - - - No Data Available - - No Data Available -
I-70 at MD-32 58 100 58 None Calm 5 mph NW 63 - 64 4/27/2017 8:50:00 AM
I-83 at MD-137 61 100 61 None Calm 7 mph E 69 - 69 4/27/2017 8:50:00 AM
I-95 at I-695 NE 61 89 58 None Calm 4 mph E 68 - 72 4/27/2017 8:51:00 AM
I-95 at Patuxent River 60 100 60 None 4 mph 11 mph SW 66 - 67 4/27/2017 8:50:00 AM
I-95 at Tydings Bridge 64 81 59 None 6 mph 15 mph E 70 - 72 4/27/2017 8:50:00 AM
I-95/495 at I-295 72 73 63 None Calm 5 mph S 70 - 71 4/27/2017 8:50:00 AM
I-97 at MD-100 60 92 58 None 5 mph 10 mph SE 67 - 67 4/27/2017 8:50:00 AM
I-97 at MD-32 61 92 58 None 8 mph 11 mph NE 66 - 67 4/27/2017 8:50:00 AM
MD 20 at MD 21 64 87 60 None Calm 9 mph SE 74 - 74 4/27/2017 8:50:00 AM
MD 231 at Patuxent River 64 91 62 None 4 mph 5 mph S 71 - 73 4/27/2017 8:50:00 AM
MD 260 at Cox Rd 60 96 59 None Calm Calm SE 68 - 68 4/27/2017 8:50:00 AM
MD-135 at Salt Dome 59 100 59 None 7 mph 13 mph SE 66 - 66 4/27/2017 8:50:00 AM
MD-140 at MD-97 58 100 58 None Calm 9 mph E 64 - 64 4/27/2017 8:50:00 AM
MD-200 EB at Bonifant Rd 59 99 58 None Calm 5 mph N 65 - 65 4/27/2017 8:51:00 AM
MD-200 WB at Muncaster Mill Rd 59 95 58 None 4 mph 9 mph SE 64 - 66 4/27/2017 8:51:00 AM
MD-213 at Sassafras River 65 90 62 None Calm 5 mph SE 69 - 69 4/27/2017 8:50:00 AM
MD-24 at Rock St Park 58 100 58 None Calm Calm W 62 - 62 4/27/2017 8:50:00 AM
MD-30 at PA Line 58 100 58 None 4 mph 12 mph E 65 - 65 4/27/2017 8:50:00 AM
MD-301 at MD-305 64 87 60 None 6 mph 9 mph SE 72 - 73 4/27/2017 8:50:00 AM
MD-33 at Knapps Narrows Drawbridge 62 92 59 None 7 mph 13 mph SE 71 - 71 4/27/2017 8:50:00 AM
MD-344 at MD-224 63 98 62 None Calm Calm SE 64 - 64 4/27/2017 8:50:00 AM
MD-4 at Patuxent River 67 92 65 None - - No Data Available 70 - 71 4/27/2017 8:50:00 AM
MD-404 at Choptank River 64 87 60 None Calm 4 mph SE 69 - 71 4/27/2017 8:50:00 AM
MD-43 at MD-150 63 92 61 None 6 mph 9 mph SE 64 - 69 4/27/2017 8:50:00 AM
MD-51 at Oldtown Salt Dome 59 97 58 None Calm Calm SW 67 - 67 4/27/2017 8:50:00 AM
MD-64 at MD-418 64 87 60 None Calm 4 mph N 73 - 74 4/27/2017 8:50:00 AM
US-1 at Baltimore / Harford Co. Line 60 96 58 None Calm 6 mph SE 61 - 61 4/27/2017 8:50:00 AM
US-1 at Conowingo Dam 59 100 59 None Calm Calm N 61 - 61 4/27/2017 8:50:00 AM
US-13 at US-113 64 98 63 None 5 mph 8 mph S 76 - 76 4/27/2017 8:50:00 AM
US-13 at US-50 - - - No Data Available - - No Data Available -
US-15 at MD-140 58 97 57 None Calm 5 mph SE 62 - 63 4/27/2017 8:50:00 AM
US-301 at MD-5 63 97 62 None Calm 9 mph SE 67 - 70 4/27/2017 8:50:00 AM
US-301 at Potomac 68 87 64 None 5 mph 9 mph SE 73 - 73 4/27/2017 8:50:00 AM
US-301 on HWN Bridge 64 92 61 None 11 mph 13 mph SE 68 - 68 4/27/2017 8:52:00 AM
US-340 at MD-180 58 98 57 None 5 mph 7 mph SE 64 - 64 4/27/2017 8:50:00 AM
US-50 at Choptank 65 96 64 None 4 mph 8 mph SE 65 - 69 4/27/2017 8:50:00 AM
US-50 at I-95 62 100 62 None Calm 5 mph NE 67 - 68 4/27/2017 8:50:00 AM
US-50 at MD-2 62 98 61 None Calm 6 mph S 65 - 68 4/27/2017 8:50:00 AM
US-50 at MD-331 64 88 61 None 5 mph 8 mph S 68 - 68 4/27/2017 8:50:00 AM
US-50 at OC Drawbridge 56 100 56 None Calm 8 mph S 64 - 64 4/27/2017 8:50:00 AM
US-50 at Table Rock Rd 63 72 54 None 4 mph 6 mph E 64 - 64 4/27/2017 8:50:00 AM
US-50 Kent Narrow Bridge 64 94 62 None 4 mph 6 mph E 69 - 71 4/27/2017 8:50:00 AM
WPL Pier 31 60 92 58 None 10 mph 9 mph SE 69 - 69 4/27/2017 8:51:00 AM
Location Air RH Dwp Precip Type Wind Speed Wind Gust Direction Pavement Temperature Date/Time